sensor_id;sensor_type;location;lat;lon;timestamp;P1;durP1;ratioP1;P2;durP2;ratioP2
38513;SDS011;24282;48.400;10.808;2023-12-29T00:01:56;3.67;;;2.07;;
38513;SDS011;24282;48.400;10.808;2023-12-29T00:30:16;3.17;;;2.40;;
38513;SDS011;24282;48.400;10.808;2023-12-29T00:32:43;3.73;;;2.33;;
38513;SDS011;24282;48.400;10.808;2023-12-29T00:35:09;2.70;;;1.83;;
38513;SDS011;24282;48.400;10.808;2023-12-29T00:37:34;2.80;;;2.07;;
38513;SDS011;24282;48.400;10.808;2023-12-29T00:40:00;3.20;;;2.30;;
38513;SDS011;24282;48.400;10.808;2023-12-29T00:42:26;4.07;;;2.10;;
38513;SDS011;24282;48.400;10.808;2023-12-29T00:44:51;4.00;;;2.20;;
38513;SDS011;24282;48.400;10.808;2023-12-29T00:47:17;3.90;;;2.73;;
38513;SDS011;24282;48.400;10.808;2023-12-29T00:49:44;3.40;;;2.20;;
38513;SDS011;24282;48.400;10.808;2023-12-29T00:52:10;4.20;;;2.60;;
38513;SDS011;24282;48.400;10.808;2023-12-29T00:54:36;3.73;;;2.27;;
38513;SDS011;24282;48.400;10.808;2023-12-29T00:57:01;3.80;;;2.87;;
38513;SDS011;24282;48.400;10.808;2023-12-29T00:59:27;3.83;;;2.50;;
38513;SDS011;24282;48.400;10.808;2023-12-29T01:01:53;3.57;;;2.30;;
38513;SDS011;24282;48.400;10.808;2023-12-29T01:04:18;3.03;;;2.27;;
38513;SDS011;24282;48.400;10.808;2023-12-29T01:06:44;3.60;;;2.60;;
38513;SDS011;24282;48.400;10.808;2023-12-29T01:09:10;3.57;;;2.33;;
38513;SDS011;24282;48.400;10.808;2023-12-29T01:11:37;2.90;;;2.20;;
38513;SDS011;24282;48.400;10.808;2023-12-29T01:14:02;3.40;;;2.43;;
38513;SDS011;24282;48.400;10.808;2023-12-29T01:16:28;3.37;;;2.37;;
38513;SDS011;24282;48.400;10.808;2023-12-29T01:18:54;3.63;;;2.70;;
38513;SDS011;24282;48.400;10.808;2023-12-29T01:21:20;3.90;;;2.63;;
38513;SDS011;24282;48.400;10.808;2023-12-29T01:23:46;2.70;;;2.13;;
38513;SDS011;24282;48.400;10.808;2023-12-29T01:26:12;3.10;;;2.30;;
38513;SDS011;24282;48.400;10.808;2023-12-29T01:28:37;4.37;;;2.40;;
38513;SDS011;24282;48.400;10.808;2023-12-29T01:31:03;4.00;;;2.77;;
38513;SDS011;24282;48.400;10.808;2023-12-29T01:33:30;3.77;;;2.77;;
38513;SDS011;24282;48.400;10.808;2023-12-29T01:35:55;3.30;;;2.40;;
38513;SDS011;24282;48.400;10.808;2023-12-29T01:38:22;4.10;;;2.60;;
38513;SDS011;24282;48.400;10.808;2023-12-29T01:40:48;3.17;;;2.40;;
38513;SDS011;24282;48.400;10.808;2023-12-29T01:43:13;5.10;;;2.80;;
38513;SDS011;24282;48.400;10.808;2023-12-29T01:45:39;4.80;;;2.60;;
38513;SDS011;24282;48.400;10.808;2023-12-29T01:48:05;2.53;;;2.23;;
38513;SDS011;24282;48.400;10.808;2023-12-29T01:50:31;3.40;;;2.50;;
38513;SDS011;24282;48.400;10.808;2023-12-29T01:52:59;3.90;;;2.50;;
38513;SDS011;24282;48.400;10.808;2023-12-29T01:55:28;3.93;;;2.37;;
38513;SDS011;24282;48.400;10.808;2023-12-29T01:57:54;4.97;;;2.87;;
38513;SDS011;24282;48.400;10.808;2023-12-29T02:00:21;4.13;;;2.77;;
38513;SDS011;24282;48.400;10.808;2023-12-29T02:02:47;4.03;;;2.70;;
38513;SDS011;24282;48.400;10.808;2023-12-29T02:05:15;3.07;;;2.37;;
38513;SDS011;24282;48.400;10.808;2023-12-29T02:07:42;5.20;;;2.90;;
38513;SDS011;24282;48.400;10.808;2023-12-29T02:10:08;5.50;;;2.90;;
38513;SDS011;24282;48.400;10.808;2023-12-29T02:12:38;5.07;;;3.17;;
38513;SDS011;24282;48.400;10.808;2023-12-29T02:15:07;5.10;;;3.00;;
38513;SDS011;24282;48.400;10.808;2023-12-29T02:17:40;3.93;;;2.83;;
38513;SDS011;24282;48.400;10.808;2023-12-29T02:20:10;3.50;;;2.73;;
38513;SDS011;24282;48.400;10.808;2023-12-29T02:22:36;3.37;;;2.23;;
38513;SDS011;24282;48.400;10.808;2023-12-29T02:25:04;3.60;;;2.60;;
38513;SDS011;24282;48.400;10.808;2023-12-29T02:30:08;3.97;;;2.70;;
38513;SDS011;24282;48.400;10.808;2023-12-29T02:32:38;3.70;;;2.80;;
38513;SDS011;24282;48.400;10.808;2023-12-29T02:35:09;4.97;;;3.53;;
38513;SDS011;24282;48.400;10.808;2023-12-29T02:37:37;4.73;;;3.00;;
38513;SDS011;24282;48.400;10.808;2023-12-29T02:40:05;3.83;;;2.60;;
38513;SDS011;24282;48.400;10.808;2023-12-29T02:42:32;6.40;;;2.83;;
38513;SDS011;24282;48.400;10.808;2023-12-29T02:44:58;5.00;;;3.07;;
38513;SDS011;24282;48.400;10.808;2023-12-29T02:47:24;5.20;;;3.20;;
38513;SDS011;24282;48.400;10.808;2023-12-29T02:49:50;4.67;;;2.70;;
38513;SDS011;24282;48.400;10.808;2023-12-29T02:52:16;4.60;;;2.63;;
38513;SDS011;24282;48.400;10.808;2023-12-29T02:54:42;3.37;;;2.60;;
38513;SDS011;24282;48.400;10.808;2023-12-29T02:57:07;4.10;;;2.90;;
38513;SDS011;24282;48.400;10.808;2023-12-29T02:59:33;3.63;;;2.80;;
38513;SDS011;24282;48.400;10.808;2023-12-29T03:01:59;3.43;;;2.37;;
38513;SDS011;24282;48.400;10.808;2023-12-29T03:04:27;3.63;;;2.23;;
38513;SDS011;24282;48.400;10.808;2023-12-29T03:06:53;2.93;;;2.13;;
38513;SDS011;24282;48.400;10.808;2023-12-29T03:09:18;3.67;;;2.70;;
38513;SDS011;24282;48.400;10.808;2023-12-29T03:11:45;4.83;;;2.80;;
38513;SDS011;24282;48.400;10.808;2023-12-29T03:14:11;6.43;;;2.73;;
38513;SDS011;24282;48.400;10.808;2023-12-29T03:16:40;3.53;;;2.70;;
38513;SDS011;24282;48.400;10.808;2023-12-29T03:19:05;3.63;;;2.57;;
38513;SDS011;24282;48.400;10.808;2023-12-29T03:21:34;5.77;;;2.70;;
38513;SDS011;24282;48.400;10.808;2023-12-29T03:24:00;3.37;;;2.47;;
38513;SDS011;24282;48.400;10.808;2023-12-29T03:26:25;4.23;;;2.80;;
38513;SDS011;24282;48.400;10.808;2023-12-29T03:28:51;3.47;;;2.70;;
38513;SDS011;24282;48.400;10.808;2023-12-29T03:31:17;2.83;;;2.40;;
38513;SDS011;24282;48.400;10.808;2023-12-29T03:33:43;3.10;;;2.40;;
38513;SDS011;24282;48.400;10.808;2023-12-29T03:36:09;3.97;;;2.50;;
38513;SDS011;24282;48.400;10.808;2023-12-29T03:38:34;3.33;;;2.10;;
38513;SDS011;24282;48.400;10.808;2023-12-29T03:41:01;3.73;;;2.30;;
38513;SDS011;24282;48.400;10.808;2023-12-29T03:43:28;4.60;;;2.60;;
38513;SDS011;24282;48.400;10.808;2023-12-29T03:45:54;3.67;;;2.33;;
38513;SDS011;24282;48.400;10.808;2023-12-29T03:48:19;4.10;;;2.70;;
38513;SDS011;24282;48.400;10.808;2023-12-29T03:50:45;4.57;;;2.50;;
38513;SDS011;24282;48.400;10.808;2023-12-29T03:53:11;3.60;;;2.60;;
38513;SDS011;24282;48.400;10.808;2023-12-29T03:55:36;4.10;;;2.60;;
38513;SDS011;24282;48.400;10.808;2023-12-29T03:58:02;3.70;;;2.50;;
38513;SDS011;24282;48.400;10.808;2023-12-29T04:00:28;4.13;;;2.50;;
38513;SDS011;24282;48.400;10.808;2023-12-29T04:02:54;3.60;;;2.50;;
38513;SDS011;24282;48.400;10.808;2023-12-29T04:05:20;4.10;;;2.90;;
38513;SDS011;24282;48.400;10.808;2023-12-29T04:07:45;5.40;;;2.70;;
38513;SDS011;24282;48.400;10.808;2023-12-29T04:10:11;4.27;;;3.20;;
38513;SDS011;24282;48.400;10.808;2023-12-29T04:12:37;4.60;;;2.93;;
38513;SDS011;24282;48.400;10.808;2023-12-29T04:15:03;5.07;;;2.87;;
38513;SDS011;24282;48.400;10.808;2023-12-29T04:17:29;3.80;;;2.40;;
38513;SDS011;24282;48.400;10.808;2023-12-29T04:19:55;3.30;;;2.33;;
38513;SDS011;24282;48.400;10.808;2023-12-29T04:22:21;3.93;;;2.60;;
38513;SDS011;24282;48.400;10.808;2023-12-29T04:24:47;2.97;;;2.10;;
38513;SDS011;24282;48.400;10.808;2023-12-29T04:27:13;3.30;;;2.37;;
38513;SDS011;24282;48.400;10.808;2023-12-29T04:29:40;5.47;;;2.43;;
38513;SDS011;24282;48.400;10.808;2023-12-29T04:32:05;3.33;;;2.40;;
38513;SDS011;24282;48.400;10.808;2023-12-29T04:34:31;3.43;;;2.53;;
38513;SDS011;24282;48.400;10.808;2023-12-29T04:36:57;2.83;;;2.10;;
38513;SDS011;24282;48.400;10.808;2023-12-29T04:39:23;3.80;;;2.30;;
38513;SDS011;24282;48.400;10.808;2023-12-29T04:41:50;4.00;;;2.77;;
38513;SDS011;24282;48.400;10.808;2023-12-29T04:44:16;4.03;;;2.40;;
38513;SDS011;24282;48.400;10.808;2023-12-29T04:46:41;3.73;;;2.30;;
38513;SDS011;24282;48.400;10.808;2023-12-29T04:49:07;4.37;;;2.70;;
38513;SDS011;24282;48.400;10.808;2023-12-29T04:51:33;4.37;;;2.67;;
38513;SDS011;24282;48.400;10.808;2023-12-29T04:53:59;4.77;;;2.83;;
38513;SDS011;24282;48.400;10.808;2023-12-29T04:56:25;4.00;;;2.57;;
38513;SDS011;24282;48.400;10.808;2023-12-29T04:58:51;3.53;;;2.53;;
38513;SDS011;24282;48.400;10.808;2023-12-29T05:01:17;3.77;;;2.60;;
38513;SDS011;24282;48.400;10.808;2023-12-29T05:03:42;4.60;;;2.90;;
38513;SDS011;24282;48.400;10.808;2023-12-29T05:06:08;3.87;;;2.60;;
38513;SDS011;24282;48.400;10.808;2023-12-29T05:08:34;2.97;;;2.27;;
38513;SDS011;24282;48.400;10.808;2023-12-29T05:11:00;3.90;;;2.40;;
38513;SDS011;24282;48.400;10.808;2023-12-29T05:13:25;4.23;;;2.47;;
38513;SDS011;24282;48.400;10.808;2023-12-29T05:15:51;3.20;;;2.50;;
38513;SDS011;24282;48.400;10.808;2023-12-29T05:18:17;3.83;;;2.30;;
38513;SDS011;24282;48.400;10.808;2023-12-29T05:20:42;4.63;;;2.30;;
38513;SDS011;24282;48.400;10.808;2023-12-29T05:23:08;4.70;;;2.67;;
38513;SDS011;24282;48.400;10.808;2023-12-29T05:25:34;4.30;;;2.63;;
38513;SDS011;24282;48.400;10.808;2023-12-29T05:28:00;3.57;;;2.13;;
38513;SDS011;24282;48.400;10.808;2023-12-29T05:30:25;4.00;;;2.37;;
38513;SDS011;24282;48.400;10.808;2023-12-29T05:32:52;2.63;;;2.07;;
38513;SDS011;24282;48.400;10.808;2023-12-29T05:35:18;3.10;;;2.03;;
38513;SDS011;24282;48.400;10.808;2023-12-29T05:37:44;3.60;;;2.33;;
38513;SDS011;24282;48.400;10.808;2023-12-29T05:40:10;3.23;;;2.20;;
38513;SDS011;24282;48.400;10.808;2023-12-29T05:42:36;3.47;;;2.60;;
38513;SDS011;24282;48.400;10.808;2023-12-29T05:45:01;3.83;;;2.30;;
38513;SDS011;24282;48.400;10.808;2023-12-29T05:47:27;3.17;;;2.17;;
38513;SDS011;24282;48.400;10.808;2023-12-29T05:49:54;3.30;;;2.40;;
38513;SDS011;24282;48.400;10.808;2023-12-29T05:52:21;4.40;;;2.33;;
38513;SDS011;24282;48.400;10.808;2023-12-29T05:54:46;3.30;;;2.07;;
38513;SDS011;24282;48.400;10.808;2023-12-29T05:57:12;4.13;;;2.80;;
38513;SDS011;24282;48.400;10.808;2023-12-29T05:59:38;3.30;;;2.30;;
38513;SDS011;24282;48.400;10.808;2023-12-29T06:02:04;3.30;;;2.40;;
38513;SDS011;24282;48.400;10.808;2023-12-29T06:04:30;4.07;;;2.67;;
38513;SDS011;24282;48.400;10.808;2023-12-29T06:06:56;4.13;;;2.67;;
38513;SDS011;24282;48.400;10.808;2023-12-29T06:09:22;4.40;;;2.57;;
38513;SDS011;24282;48.400;10.808;2023-12-29T06:11:47;2.93;;;2.40;;
38513;SDS011;24282;48.400;10.808;2023-12-29T06:14:13;4.80;;;2.80;;
38513;SDS011;24282;48.400;10.808;2023-12-29T06:16:39;3.03;;;2.13;;
38513;SDS011;24282;48.400;10.808;2023-12-29T06:19:05;3.13;;;2.30;;
38513;SDS011;24282;48.400;10.808;2023-12-29T06:21:31;3.40;;;2.30;;
38513;SDS011;24282;48.400;10.808;2023-12-29T06:23:57;3.77;;;2.40;;
38513;SDS011;24282;48.400;10.808;2023-12-29T06:26:22;3.83;;;2.30;;
38513;SDS011;24282;48.400;10.808;2023-12-29T06:28:48;3.67;;;2.30;;
38513;SDS011;24282;48.400;10.808;2023-12-29T06:31:16;3.93;;;2.47;;
38513;SDS011;24282;48.400;10.808;2023-12-29T06:33:42;3.67;;;2.43;;
38513;SDS011;24282;48.400;10.808;2023-12-29T06:36:10;2.87;;;2.07;;
38513;SDS011;24282;48.400;10.808;2023-12-29T06:38:37;2.97;;;2.37;;
38513;SDS011;24282;48.400;10.808;2023-12-29T06:41:03;4.07;;;2.60;;
38513;SDS011;24282;48.400;10.808;2023-12-29T06:43:29;3.90;;;2.50;;
38513;SDS011;24282;48.400;10.808;2023-12-29T06:45:55;3.63;;;2.80;;
38513;SDS011;24282;48.400;10.808;2023-12-29T06:48:21;3.63;;;2.70;;
38513;SDS011;24282;48.400;10.808;2023-12-29T06:50:47;4.23;;;3.33;;
38513;SDS011;24282;48.400;10.808;2023-12-29T06:53:13;3.07;;;2.30;;
38513;SDS011;24282;48.400;10.808;2023-12-29T06:55:38;3.00;;;2.10;;
38513;SDS011;24282;48.400;10.808;2023-12-29T06:58:04;2.87;;;2.27;;
38513;SDS011;24282;48.400;10.808;2023-12-29T07:00:30;3.60;;;2.43;;
38513;SDS011;24282;48.400;10.808;2023-12-29T07:02:56;3.43;;;2.37;;
38513;SDS011;24282;48.400;10.808;2023-12-29T07:05:22;4.67;;;2.67;;
38513;SDS011;24282;48.400;10.808;2023-12-29T07:07:47;5.37;;;2.57;;
38513;SDS011;24282;48.400;10.808;2023-12-29T07:10:13;3.47;;;2.23;;
38513;SDS011;24282;48.400;10.808;2023-12-29T07:12:42;4.80;;;2.63;;
38513;SDS011;24282;48.400;10.808;2023-12-29T07:15:08;4.13;;;2.27;;
38513;SDS011;24282;48.400;10.808;2023-12-29T07:17:34;2.87;;;2.10;;
38513;SDS011;24282;48.400;10.808;2023-12-29T07:20:00;4.03;;;2.63;;
38513;SDS011;24282;48.400;10.808;2023-12-29T07:22:26;3.73;;;2.73;;
38513;SDS011;24282;48.400;10.808;2023-12-29T07:24:52;4.27;;;2.20;;
38513;SDS011;24282;48.400;10.808;2023-12-29T07:27:18;4.97;;;2.40;;
38513;SDS011;24282;48.400;10.808;2023-12-29T07:29:44;4.13;;;2.17;;
38513;SDS011;24282;48.400;10.808;2023-12-29T07:32:10;3.50;;;2.30;;
38513;SDS011;24282;48.400;10.808;2023-12-29T07:34:35;4.63;;;3.57;;
38513;SDS011;24282;48.400;10.808;2023-12-29T07:37:01;4.07;;;2.30;;
38513;SDS011;24282;48.400;10.808;2023-12-29T07:39:27;3.50;;;2.27;;
38513;SDS011;24282;48.400;10.808;2023-12-29T07:41:53;3.70;;;2.40;;
38513;SDS011;24282;48.400;10.808;2023-12-29T07:44:22;2.67;;;2.03;;
38513;SDS011;24282;48.400;10.808;2023-12-29T07:46:47;3.33;;;2.07;;
38513;SDS011;24282;48.400;10.808;2023-12-29T07:49:13;3.43;;;2.10;;
38513;SDS011;24282;48.400;10.808;2023-12-29T07:51:42;3.80;;;2.50;;
38513;SDS011;24282;48.400;10.808;2023-12-29T07:54:11;2.43;;;1.90;;
38513;SDS011;24282;48.400;10.808;2023-12-29T07:56:37;4.07;;;2.70;;
38513;SDS011;24282;48.400;10.808;2023-12-29T07:59:03;6.40;;;3.27;;
38513;SDS011;24282;48.400;10.808;2023-12-29T08:01:29;4.87;;;3.43;;
38513;SDS011;24282;48.400;10.808;2023-12-29T08:03:55;5.10;;;3.40;;
38513;SDS011;24282;48.400;10.808;2023-12-29T08:06:21;5.93;;;3.43;;
38513;SDS011;24282;48.400;10.808;2023-12-29T08:08:47;4.53;;;2.83;;
38513;SDS011;24282;48.400;10.808;2023-12-29T08:11:16;4.23;;;2.23;;
38513;SDS011;24282;48.400;10.808;2023-12-29T08:13:46;4.37;;;2.47;;
38513;SDS011;24282;48.400;10.808;2023-12-29T08:16:13;4.60;;;2.70;;
38513;SDS011;24282;48.400;10.808;2023-12-29T08:18:40;3.70;;;2.23;;
38513;SDS011;24282;48.400;10.808;2023-12-29T08:21:05;3.63;;;2.43;;
38513;SDS011;24282;48.400;10.808;2023-12-29T08:23:31;3.07;;;1.93;;
38513;SDS011;24282;48.400;10.808;2023-12-29T08:25:57;3.17;;;2.10;;
38513;SDS011;24282;48.400;10.808;2023-12-29T08:28:25;3.67;;;2.33;;
38513;SDS011;24282;48.400;10.808;2023-12-29T08:30:51;2.90;;;1.90;;
38513;SDS011;24282;48.400;10.808;2023-12-29T08:33:17;3.30;;;2.40;;
38513;SDS011;24282;48.400;10.808;2023-12-29T08:35:43;3.70;;;2.13;;
38513;SDS011;24282;48.400;10.808;2023-12-29T08:38:10;3.27;;;2.47;;
38513;SDS011;24282;48.400;10.808;2023-12-29T08:40:36;3.73;;;2.50;;
38513;SDS011;24282;48.400;10.808;2023-12-29T08:43:02;4.60;;;2.57;;
38513;SDS011;24282;48.400;10.808;2023-12-29T08:45:28;3.27;;;2.27;;
38513;SDS011;24282;48.400;10.808;2023-12-29T08:47:54;3.40;;;2.10;;
38513;SDS011;24282;48.400;10.808;2023-12-29T08:50:20;3.47;;;2.40;;
38513;SDS011;24282;48.400;10.808;2023-12-29T08:52:46;3.30;;;2.20;;
38513;SDS011;24282;48.400;10.808;2023-12-29T08:55:12;2.90;;;2.10;;
38513;SDS011;24282;48.400;10.808;2023-12-29T08:57:38;4.80;;;2.20;;
38513;SDS011;24282;48.400;10.808;2023-12-29T09:00:04;3.57;;;2.37;;
38513;SDS011;24282;48.400;10.808;2023-12-29T09:02:30;3.20;;;2.50;;
38513;SDS011;24282;48.400;10.808;2023-12-29T09:04:56;4.40;;;2.20;;
38513;SDS011;24282;48.400;10.808;2023-12-29T09:07:21;4.53;;;2.40;;
38513;SDS011;24282;48.400;10.808;2023-12-29T09:09:47;3.57;;;2.70;;
38513;SDS011;24282;48.400;10.808;2023-12-29T09:12:13;3.57;;;2.57;;
38513;SDS011;24282;48.400;10.808;2023-12-29T09:14:38;3.93;;;2.33;;
38513;SDS011;24282;48.400;10.808;2023-12-29T09:17:04;3.27;;;2.10;;
38513;SDS011;24282;48.400;10.808;2023-12-29T09:19:30;4.13;;;2.20;;
38513;SDS011;24282;48.400;10.808;2023-12-29T09:21:56;5.53;;;3.20;;
38513;SDS011;24282;48.400;10.808;2023-12-29T09:24:21;2.97;;;2.00;;
38513;SDS011;24282;48.400;10.808;2023-12-29T09:26:47;2.83;;;2.03;;
38513;SDS011;24282;48.400;10.808;2023-12-29T09:29:13;2.40;;;1.93;;
38513;SDS011;24282;48.400;10.808;2023-12-29T09:31:39;3.23;;;2.00;;
38513;SDS011;24282;48.400;10.808;2023-12-29T09:34:05;7.23;;;2.00;;
38513;SDS011;24282;48.400;10.808;2023-12-29T09:36:30;3.30;;;1.90;;
38513;SDS011;24282;48.400;10.808;2023-12-29T09:38:56;2.60;;;1.83;;
38513;SDS011;24282;48.400;10.808;2023-12-29T09:41:23;2.87;;;1.87;;
38513;SDS011;24282;48.400;10.808;2023-12-29T09:43:50;4.07;;;2.80;;
38513;SDS011;24282;48.400;10.808;2023-12-29T09:46:16;2.20;;;1.70;;
38513;SDS011;24282;48.400;10.808;2023-12-29T09:48:46;3.23;;;1.93;;
38513;SDS011;24282;48.400;10.808;2023-12-29T09:51:13;2.53;;;1.63;;
38513;SDS011;24282;48.400;10.808;2023-12-29T09:53:41;2.70;;;1.97;;
38513;SDS011;24282;48.400;10.808;2023-12-29T09:56:07;2.90;;;1.80;;
38513;SDS011;24282;48.400;10.808;2023-12-29T09:58:36;3.33;;;2.13;;
38513;SDS011;24282;48.400;10.808;2023-12-29T10:01:05;5.30;;;2.77;;
38513;SDS011;24282;48.400;10.808;2023-12-29T10:03:31;4.30;;;2.63;;
38513;SDS011;24282;48.400;10.808;2023-12-29T10:05:59;3.80;;;2.27;;
38513;SDS011;24282;48.400;10.808;2023-12-29T10:08:27;3.07;;;2.03;;
38513;SDS011;24282;48.400;10.808;2023-12-29T10:10:57;3.40;;;2.10;;
38513;SDS011;24282;48.400;10.808;2023-12-29T10:13:25;3.77;;;2.50;;
38513;SDS011;24282;48.400;10.808;2023-12-29T10:18:42;3.83;;;2.27;;
38513;SDS011;24282;48.400;10.808;2023-12-29T10:21:17;3.00;;;2.00;;
38513;SDS011;24282;48.400;10.808;2023-12-29T10:26:24;2.77;;;1.83;;
38513;SDS011;24282;48.400;10.808;2023-12-29T10:28:51;3.60;;;2.00;;
38513;SDS011;24282;48.400;10.808;2023-12-29T10:31:17;3.30;;;2.03;;
38513;SDS011;24282;48.400;10.808;2023-12-29T10:33:43;2.47;;;1.53;;
38513;SDS011;24282;48.400;10.808;2023-12-29T10:36:09;1.97;;;1.40;;
38513;SDS011;24282;48.400;10.808;2023-12-29T10:38:39;2.77;;;1.90;;
38513;SDS011;24282;48.400;10.808;2023-12-29T10:41:11;2.97;;;1.88;;
38513;SDS011;24282;48.400;10.808;2023-12-29T10:43:38;2.43;;;1.80;;
38513;SDS011;24282;48.400;10.808;2023-12-29T10:46:06;2.37;;;1.37;;
38513;SDS011;24282;48.400;10.808;2023-12-29T10:48:36;2.50;;;1.70;;
38513;SDS011;24282;48.400;10.808;2023-12-29T10:51:03;2.90;;;1.83;;
38513;SDS011;24282;48.400;10.808;2023-12-29T10:53:35;2.10;;;1.40;;
38513;SDS011;24282;48.400;10.808;2023-12-29T10:56:02;2.17;;;1.30;;
38513;SDS011;24282;48.400;10.808;2023-12-29T10:58:28;2.47;;;1.73;;
38513;SDS011;24282;48.400;10.808;2023-12-29T11:00:55;5.07;;;1.40;;
38513;SDS011;24282;48.400;10.808;2023-12-29T11:03:21;2.33;;;1.47;;
38513;SDS011;24282;48.400;10.808;2023-12-29T11:05:47;2.90;;;1.60;;
38513;SDS011;24282;48.400;10.808;2023-12-29T11:08:20;1.73;;;1.20;;
38513;SDS011;24282;48.400;10.808;2023-12-29T11:10:49;2.13;;;1.60;;
38513;SDS011;24282;48.400;10.808;2023-12-29T11:13:15;2.13;;;1.50;;
38513;SDS011;24282;48.400;10.808;2023-12-29T11:15:42;2.67;;;1.70;;
38513;SDS011;24282;48.400;10.808;2023-12-29T11:18:15;4.17;;;1.70;;
38513;SDS011;24282;48.400;10.808;2023-12-29T11:20:43;1.87;;;1.40;;
38513;SDS011;24282;48.400;10.808;2023-12-29T11:23:10;3.13;;;1.80;;
38513;SDS011;24282;48.400;10.808;2023-12-29T11:25:39;2.47;;;1.73;;
38513;SDS011;24282;48.400;10.808;2023-12-29T11:28:08;2.47;;;1.63;;
38513;SDS011;24282;48.400;10.808;2023-12-29T11:30:37;2.03;;;1.30;;
38513;SDS011;24282;48.400;10.808;2023-12-29T11:41:09;2.13;;;1.63;;
38513;SDS011;24282;48.400;10.808;2023-12-29T11:43:42;2.23;;;1.70;;
38513;SDS011;24282;48.400;10.808;2023-12-29T11:46:24;2.20;;;1.43;;
38513;SDS011;24282;48.400;10.808;2023-12-29T11:49:08;1.80;;;1.30;;
38513;SDS011;24282;48.400;10.808;2023-12-29T11:54:08;2.20;;;1.40;;
38513;SDS011;24282;48.400;10.808;2023-12-29T11:56:35;3.27;;;1.30;;
38513;SDS011;24282;48.400;10.808;2023-12-29T11:59:11;2.30;;;1.40;;
38513;SDS011;24282;48.400;10.808;2023-12-29T12:01:40;1.87;;;1.20;;
38513;SDS011;24282;48.400;10.808;2023-12-29T12:09:51;2.60;;;1.63;;
38513;SDS011;24282;48.400;10.808;2023-12-29T12:17:54;2.43;;;1.17;;
38513;SDS011;24282;48.400;10.808;2023-12-29T12:20:21;2.30;;;1.40;;
38513;SDS011;24282;48.400;10.808;2023-12-29T12:22:48;1.60;;;1.07;;
38513;SDS011;24282;48.400;10.808;2023-12-29T12:27:46;1.93;;;1.20;;
38513;SDS011;24282;48.400;10.808;2023-12-29T12:30:12;1.37;;;1.10;;
38513;SDS011;24282;48.400;10.808;2023-12-29T12:32:44;1.53;;;1.37;;
38513;SDS011;24282;48.400;10.808;2023-12-29T12:35:13;2.33;;;1.30;;
38513;SDS011;24282;48.400;10.808;2023-12-29T12:37:41;2.23;;;1.53;;
38513;SDS011;24282;48.400;10.808;2023-12-29T12:40:07;1.93;;;1.40;;
38513;SDS011;24282;48.400;10.808;2023-12-29T12:42:34;2.37;;;1.10;;
38513;SDS011;24282;48.400;10.808;2023-12-29T12:45:06;1.52;;;1.25;;
38513;SDS011;24282;48.400;10.808;2023-12-29T12:47:44;1.87;;;1.20;;
38513;SDS011;24282;48.400;10.808;2023-12-29T12:50:14;1.63;;;1.27;;
38513;SDS011;24282;48.400;10.808;2023-12-29T12:52:40;1.73;;;1.27;;
38513;SDS011;24282;48.400;10.808;2023-12-29T12:55:06;2.00;;;1.40;;
38513;SDS011;24282;48.400;10.808;2023-12-29T12:57:33;2.03;;;1.20;;
38513;SDS011;24282;48.400;10.808;2023-12-29T13:00:00;1.60;;;1.20;;
38513;SDS011;24282;48.400;10.808;2023-12-29T13:02:28;2.70;;;1.40;;
38513;SDS011;24282;48.400;10.808;2023-12-29T13:04:54;2.27;;;1.30;;
38513;SDS011;24282;48.400;10.808;2023-12-29T13:07:21;1.73;;;1.20;;
38513;SDS011;24282;48.400;10.808;2023-12-29T13:09:47;2.00;;;1.20;;
38513;SDS011;24282;48.400;10.808;2023-12-29T13:12:15;1.87;;;1.40;;
38513;SDS011;24282;48.400;10.808;2023-12-29T13:14:41;1.70;;;1.13;;
38513;SDS011;24282;48.400;10.808;2023-12-29T13:17:11;2.50;;;1.50;;
38513;SDS011;24282;48.400;10.808;2023-12-29T13:19:38;1.37;;;1.10;;
38513;SDS011;24282;48.400;10.808;2023-12-29T13:22:07;1.60;;;1.10;;
38513;SDS011;24282;48.400;10.808;2023-12-29T13:24:35;1.30;;;1.17;;
38513;SDS011;24282;48.400;10.808;2023-12-29T13:27:07;2.35;;;1.20;;
38513;SDS011;24282;48.400;10.808;2023-12-29T13:29:35;1.67;;;1.27;;
38513;SDS011;24282;48.400;10.808;2023-12-29T13:32:23;1.80;;;1.20;;
38513;SDS011;24282;48.400;10.808;2023-12-29T13:34:56;1.83;;;1.20;;
38513;SDS011;24282;48.400;10.808;2023-12-29T13:37:46;2.37;;;1.10;;
38513;SDS011;24282;48.400;10.808;2023-12-29T13:43:08;1.90;;;1.13;;
38513;SDS011;24282;48.400;10.808;2023-12-29T13:45:36;1.83;;;1.23;;
38513;SDS011;24282;48.400;10.808;2023-12-29T13:48:04;1.60;;;1.30;;
38513;SDS011;24282;48.400;10.808;2023-12-29T13:50:32;1.77;;;1.10;;
38513;SDS011;24282;48.400;10.808;2023-12-29T13:52:58;1.37;;;1.13;;
38513;SDS011;24282;48.400;10.808;2023-12-29T13:55:24;2.77;;;1.13;;
38513;SDS011;24282;48.400;10.808;2023-12-29T13:57:51;2.73;;;0.93;;
38513;SDS011;24282;48.400;10.808;2023-12-29T14:05:44;2.20;;;1.30;;
38513;SDS011;24282;48.400;10.808;2023-12-29T14:08:17;2.70;;;1.50;;
38513;SDS011;24282;48.400;10.808;2023-12-29T14:10:45;2.20;;;1.40;;
38513;SDS011;24282;48.400;10.808;2023-12-29T14:15:39;1.43;;;1.10;;
38513;SDS011;24282;48.400;10.808;2023-12-29T14:20:34;2.53;;;1.50;;
38513;SDS011;24282;48.400;10.808;2023-12-29T14:23:01;1.73;;;1.20;;
38513;SDS011;24282;48.400;10.808;2023-12-29T14:25:28;2.13;;;1.17;;
38513;SDS011;24282;48.400;10.808;2023-12-29T14:27:54;1.63;;;1.17;;
38513;SDS011;24282;48.400;10.808;2023-12-29T14:30:19;2.80;;;1.47;;
38513;SDS011;24282;48.400;10.808;2023-12-29T14:32:46;1.73;;;1.00;;
38513;SDS011;24282;48.400;10.808;2023-12-29T14:35:12;1.40;;;0.93;;
38513;SDS011;24282;48.400;10.808;2023-12-29T14:37:38;1.43;;;1.10;;
38513;SDS011;24282;48.400;10.808;2023-12-29T14:40:04;1.23;;;1.00;;
38513;SDS011;24282;48.400;10.808;2023-12-29T14:42:30;2.83;;;1.33;;
38513;SDS011;24282;48.400;10.808;2023-12-29T14:44:56;1.17;;;0.90;;
38513;SDS011;24282;48.400;10.808;2023-12-29T14:47:21;2.00;;;1.17;;
38513;SDS011;24282;48.400;10.808;2023-12-29T14:49:47;1.90;;;1.10;;
38513;SDS011;24282;48.400;10.808;2023-12-29T14:52:13;1.20;;;0.83;;
38513;SDS011;24282;48.400;10.808;2023-12-29T14:54:38;2.40;;;1.07;;
38513;SDS011;24282;48.400;10.808;2023-12-29T14:57:05;1.93;;;1.00;;
38513;SDS011;24282;48.400;10.808;2023-12-29T14:59:31;1.77;;;1.00;;
38513;SDS011;24282;48.400;10.808;2023-12-29T15:01:57;1.20;;;1.00;;
38513;SDS011;24282;48.400;10.808;2023-12-29T15:04:22;1.83;;;1.00;;
38513;SDS011;24282;48.400;10.808;2023-12-29T15:06:48;2.13;;;1.10;;
38513;SDS011;24282;48.400;10.808;2023-12-29T15:09:14;5.70;;;2.87;;
38513;SDS011;24282;48.400;10.808;2023-12-29T15:11:40;2.97;;;1.77;;
38513;SDS011;24282;48.400;10.808;2023-12-29T15:14:06;2.03;;;1.30;;
38513;SDS011;24282;48.400;10.808;2023-12-29T15:16:32;2.00;;;1.27;;
38513;SDS011;24282;48.400;10.808;2023-12-29T15:18:58;2.70;;;1.87;;
38513;SDS011;24282;48.400;10.808;2023-12-29T15:21:28;1.53;;;1.17;;
38513;SDS011;24282;48.400;10.808;2023-12-29T15:23:54;1.00;;;0.90;;
38513;SDS011;24282;48.400;10.808;2023-12-29T15:26:20;2.47;;;1.10;;
38513;SDS011;24282;48.400;10.808;2023-12-29T15:28:45;1.97;;;1.00;;
38513;SDS011;24282;48.400;10.808;2023-12-29T15:31:11;2.67;;;1.40;;
38513;SDS011;24282;48.400;10.808;2023-12-29T15:33:39;2.07;;;1.30;;
38513;SDS011;24282;48.400;10.808;2023-12-29T15:36:04;2.30;;;1.00;;
38513;SDS011;24282;48.400;10.808;2023-12-29T15:38:31;1.57;;;1.10;;
38513;SDS011;24282;48.400;10.808;2023-12-29T15:40:57;1.53;;;1.10;;
38513;SDS011;24282;48.400;10.808;2023-12-29T15:43:23;3.07;;;1.30;;